createdAt,value
2023-03-11T00:02:10.154Z,88.33
2023-03-11T00:04:37.164Z,87.97
2023-03-11T00:07:06.154Z,88.10
2023-03-11T00:09:34.830Z,87.59
2023-03-11T00:12:02.121Z,87.14
2023-03-11T00:14:29.188Z,86.48
2023-03-11T00:16:56.485Z,86.61
2023-03-11T00:19:23.127Z,86.86
2023-03-11T00:21:49.757Z,86.65
2023-03-11T00:24:16.385Z,85.71
2023-03-11T00:26:44.365Z,85.93
2023-03-11T00:29:10.957Z,85.59
2023-03-11T00:31:37.616Z,85.75
2023-03-11T00:34:06.736Z,84.67
2023-03-11T00:36:33.747Z,84.52
2023-03-11T00:39:01.745Z,85.34
2023-03-11T00:41:28.548Z,85.19
2023-03-11T00:43:56.598Z,84.43
2023-03-11T00:46:23.295Z,84.89
2023-03-11T00:48:50.662Z,84.52
2023-03-11T00:51:17.519Z,83.88
2023-03-11T00:53:44.480Z,84.00
2023-03-11T00:56:13.005Z,84.05
2023-03-11T00:58:43.006Z,82.98
2023-03-11T01:01:12.965Z,83.31
2023-03-11T01:03:40.058Z,83.49
2023-03-11T01:06:06.854Z,84.08
2023-03-11T01:08:34.008Z,84.16
2023-03-11T01:11:01.227Z,84.16
2023-03-11T01:13:29.248Z,83.94
2023-03-11T01:15:56.464Z,83.92
2023-03-11T01:18:24.656Z,83.63
2023-03-11T01:20:52.191Z,83.60
2023-03-11T01:23:20.500Z,82.79
2023-03-11T01:25:47.993Z,83.72
2023-03-11T01:28:14.573Z,83.12
2023-03-11T01:30:42.854Z,82.80
2023-03-11T01:33:15.047Z,83.08
2023-03-11T01:35:43.898Z,83.30
2023-03-11T01:38:11.609Z,83.14
2023-03-11T01:40:41.076Z,83.61
2023-03-11T01:43:25.012Z,82.76
2023-03-11T01:46:11.853Z,83.29
2023-03-11T01:48:38.826Z,82.99
2023-03-11T01:51:07.454Z,82.99
2023-03-11T01:53:35.350Z,83.30
2023-03-11T01:56:03.761Z,83.01
2023-03-11T01:58:34.297Z,83.18
2023-03-11T02:01:02.444Z,82.93
2023-03-11T02:03:31.943Z,83.03
2023-03-11T02:06:02.599Z,83.59
2023-03-11T02:08:31.731Z,83.99
2023-03-11T02:10:58.502Z,83.64
2023-03-11T02:13:25.336Z,83.79
2023-03-11T02:15:52.409Z,83.86
2023-03-11T02:18:20.390Z,83.06
2023-03-11T02:20:54.457Z,83.63
2023-03-11T02:23:26.968Z,83.30
2023-03-11T02:26:04.849Z,83.62
2023-03-11T02:28:34.924Z,83.22
2023-03-11T02:31:01.930Z,83.14
2023-03-11T02:33:32.214Z,82.54
2023-03-11T02:35:59.718Z,83.56
2023-03-11T02:38:26.357Z,83.43
2023-03-11T02:40:56.481Z,83.92
2023-03-11T02:43:31.813Z,83.76
2023-03-11T02:46:00.675Z,83.82
2023-03-11T02:48:30.125Z,83.91
2023-03-11T02:50:58.655Z,83.63
2023-03-11T02:53:28.773Z,83.79
2023-03-11T02:55:55.448Z,83.31
2023-03-11T02:58:22.144Z,82.56
2023-03-11T03:00:51.318Z,82.24
2023-03-11T03:03:20.155Z,82.76
2023-03-11T03:05:47.138Z,82.56
2023-03-11T03:08:13.808Z,82.26
2023-03-11T03:10:41.563Z,82.40
2023-03-11T03:13:08.215Z,82.61
2023-03-11T03:15:35.072Z,80.71
2023-03-11T03:18:01.665Z,80.05
2023-03-11T03:20:30.096Z,80.11
2023-03-11T03:23:00.955Z,80.26
2023-03-11T03:25:30.673Z,80.22
2023-03-11T03:28:01.202Z,80.26
2023-03-11T03:30:30.008Z,80.12
2023-03-11T03:32:56.713Z,79.78
2023-03-11T03:35:23.718Z,79.79
2023-03-11T03:38:17.664Z,80.28
2023-03-11T03:40:49.044Z,79.45
2023-03-11T03:43:18.535Z,79.01
2023-03-11T03:45:55.475Z,78.84
2023-03-11T03:48:22.703Z,77.33
2023-03-11T03:50:49.284Z,77.75
2023-03-11T03:53:19.013Z,78.31
2023-03-11T03:55:46.614Z,77.29
2023-03-11T03:58:13.377Z,76.95
2023-03-11T04:00:40.133Z,77.40
2023-03-11T04:03:07.165Z,77.70
2023-03-11T04:05:46.695Z,78.58
2023-03-11T04:08:16.651Z,78.71
2023-03-11T04:10:45.663Z,77.79
2023-03-11T04:13:12.300Z,78.00
2023-03-11T04:15:39.405Z,78.33
2023-03-11T04:18:06.345Z,79.19
2023-03-11T04:20:32.997Z,79.26
2023-03-11T04:22:59.584Z,80.37
2023-03-11T04:25:26.234Z,80.07
2023-03-11T04:27:54.528Z,81.10
2023-03-11T04:30:22.072Z,81.54
2023-03-11T04:32:52.604Z,81.95
2023-03-11T04:35:19.364Z,81.63
2023-03-11T04:37:46.045Z,81.94
2023-03-11T04:40:13.445Z,81.56
2023-03-11T04:42:40.465Z,81.52
2023-03-11T04:45:11.130Z,81.56
2023-03-11T04:47:38.615Z,81.89
2023-03-11T04:50:06.381Z,81.80
2023-03-11T04:52:33.067Z,82.10
2023-03-11T04:54:59.748Z,81.78
2023-03-11T04:57:26.605Z,81.48
2023-03-11T04:59:53.184Z,81.36
2023-03-11T05:02:21.897Z,81.47
2023-03-11T05:04:55.141Z,81.82
2023-03-11T05:07:21.871Z,81.81
2023-03-11T05:09:48.766Z,81.67
2023-03-11T05:12:15.533Z,82.28
2023-03-11T05:14:46.638Z,82.40
2023-03-11T05:17:13.376Z,82.78
2023-03-11T05:19:41.396Z,82.77
2023-03-11T05:22:15.362Z,82.84
2023-03-11T05:24:42.232Z,83.88
2023-03-11T05:27:08.974Z,83.41
2023-03-11T05:29:38.029Z,83.45
2023-03-11T05:32:09.114Z,84.07
2023-03-11T05:34:36.407Z,84.63
2023-03-11T05:37:04.458Z,84.80
2023-03-11T05:39:31.884Z,85.16
2023-03-11T05:41:58.875Z,85.47
2023-03-11T05:44:26.541Z,85.65
2023-03-11T05:46:54.659Z,85.64
2023-03-11T05:49:21.971Z,86.36
2023-03-11T05:51:51.512Z,86.28
2023-03-11T05:54:20.488Z,86.46
2023-03-11T05:56:50.342Z,86.83
2023-03-11T05:59:18.150Z,86.49
2023-03-11T06:01:48.725Z,86.54
2023-03-11T06:04:18.252Z,86.91
2023-03-11T06:06:45.265Z,86.75
2023-03-11T06:09:14.075Z,86.74
2023-03-11T06:11:43.722Z,87.56
2023-03-11T06:14:13.077Z,87.86
2023-03-11T06:16:40.813Z,87.21
2023-03-11T06:19:09.451Z,87.58
2023-03-11T06:21:40.955Z,87.21
2023-03-11T06:24:08.094Z,87.58
2023-03-11T06:26:34.898Z,87.79
2023-03-11T06:29:03.329Z,87.48
2023-03-11T06:31:30.450Z,87.33
2023-03-11T06:34:03.840Z,87.32
2023-03-11T06:36:30.553Z,87.40
2023-03-11T06:38:57.486Z,87.76
2023-03-11T06:41:25.970Z,87.59
2023-03-11T06:43:52.673Z,87.73
2023-03-11T06:46:22.399Z,88.34
2023-03-11T06:48:50.770Z,88.08
2023-03-11T06:51:18.607Z,87.85
2023-03-11T06:53:48.848Z,87.75
2023-03-11T06:56:15.908Z,87.72
2023-03-11T06:58:47.516Z,87.63
2023-03-11T07:01:16.968Z,87.72
2023-03-11T07:03:46.127Z,88.07
2023-03-11T07:06:14.814Z,88.07
2023-03-11T07:08:41.942Z,87.93
2023-03-11T07:11:12.233Z,87.91
2023-03-11T07:13:39.139Z,87.59
2023-03-11T07:16:08.085Z,87.60
2023-03-11T07:18:36.408Z,87.76
2023-03-11T07:21:07.253Z,88.30
2023-03-11T07:23:34.799Z,87.72
2023-03-11T07:26:01.863Z,87.50
2023-03-11T07:28:29.021Z,87.67
2023-03-11T07:30:56.637Z,86.91
2023-03-11T07:33:23.541Z,86.77
2023-03-11T07:35:50.335Z,86.44
2023-03-11T07:38:18.437Z,86.18
2023-03-11T07:40:45.039Z,85.71
2023-03-11T07:43:11.763Z,85.18
2023-03-11T07:45:38.378Z,84.64
2023-03-11T07:48:05.472Z,83.97
2023-03-11T07:50:32.062Z,83.82
2023-03-11T07:52:58.716Z,83.41
2023-03-11T07:55:26.743Z,81.70
2023-03-11T07:57:53.529Z,82.13
2023-03-11T08:00:20.608Z,81.55
2023-03-11T08:02:47.509Z,81.32
2023-03-11T08:05:14.357Z,80.57
2023-03-11T08:07:41.650Z,79.96
2023-03-11T08:10:09.409Z,78.67
2023-03-11T08:12:37.616Z,78.13
2023-03-11T08:15:05.072Z,77.27
2023-03-11T08:17:31.960Z,76.69
2023-03-11T08:19:59.046Z,76.54
2023-03-11T08:22:26.420Z,75.41
2023-03-11T08:24:53.758Z,74.56
2023-03-11T08:27:20.526Z,74.26
2023-03-11T08:29:48.393Z,74.23
2023-03-11T08:32:15.079Z,74.33
2023-03-11T08:34:42.252Z,74.28
2023-03-11T08:37:09.432Z,73.27
2023-03-11T08:39:36.332Z,73.52
2023-03-11T08:42:03.325Z,72.05
2023-03-11T08:44:29.902Z,67.01
2023-03-11T08:46:58.265Z,65.62
2023-03-11T08:49:25.100Z,63.69
2023-03-11T08:51:51.921Z,62.10
2023-03-11T08:54:19.553Z,62.96
2023-03-11T08:56:46.405Z,60.31
2023-03-11T08:59:13.344Z,61.56
2023-03-11T09:01:40.459Z,62.81
2023-03-11T09:04:08.543Z,61.79
2023-03-11T09:06:35.180Z,59.45
2023-03-11T09:09:01.950Z,60.90
2023-03-11T09:11:28.579Z,59.38
2023-03-11T09:13:55.280Z,59.68
2023-03-11T09:16:23.678Z,59.25
2023-03-11T09:18:51.635Z,60.19
2023-03-11T09:21:20.105Z,60.59
2023-03-11T09:23:47.320Z,58.87
2023-03-11T09:26:14.952Z,54.46
2023-03-11T09:28:42.592Z,55.36
2023-03-11T09:31:09.421Z,57.70
2023-03-11T09:33:39.371Z,57.94
2023-03-11T09:36:08.107Z,58.32
2023-03-11T09:38:36.006Z,56.73
2023-03-11T09:41:07.977Z,56.79
2023-03-11T09:43:46.345Z,57.43
2023-03-11T09:46:31.086Z,55.49
2023-03-11T09:49:09.543Z,48.01
2023-03-11T09:51:40.653Z,50.22
2023-03-11T09:54:12.551Z,51.10
2023-03-11T09:56:44.351Z,52.70
2023-03-11T09:59:15.718Z,52.60
2023-03-11T10:01:44.722Z,47.76
2023-03-11T10:04:14.997Z,49.15
2023-03-11T10:06:44.724Z,50.33
2023-03-11T10:09:29.158Z,48.89
2023-03-11T10:12:09.790Z,46.45
2023-03-11T10:14:48.488Z,47.11
2023-03-11T10:17:23.464Z,46.18
2023-03-11T10:19:57.237Z,45.87
2023-03-11T10:22:31.127Z,46.90
2023-03-11T10:25:09.302Z,48.22
2023-03-11T10:27:42.616Z,48.75
2023-03-11T10:30:19.357Z,47.79
2023-03-11T10:32:52.314Z,45.29
2023-03-11T10:35:22.415Z,46.48
2023-03-11T10:37:54.778Z,47.86
2023-03-11T10:40:30.443Z,46.92
2023-03-11T10:43:01.417Z,48.20
2023-03-11T10:45:33.300Z,50.87
2023-03-11T10:47:59.829Z,48.39
2023-03-11T10:50:26.467Z,45.70
2023-03-11T10:53:09.615Z,45.03
2023-03-11T10:55:45.990Z,45.26
2023-03-11T10:58:15.355Z,44.89
2023-03-11T11:00:41.961Z,42.48
2023-03-11T11:03:20.018Z,41.91
2023-03-11T11:05:57.732Z,43.97
2023-03-11T11:08:24.363Z,44.22
2023-03-11T11:10:56.644Z,43.99
2023-03-11T11:13:24.680Z,44.47
2023-03-11T11:15:54.324Z,45.02
2023-03-11T11:18:24.166Z,43.94
2023-03-11T11:20:58.206Z,45.27
2023-03-11T11:23:28.004Z,45.09
2023-03-11T11:25:58.759Z,42.94
2023-03-11T11:28:25.917Z,42.09
2023-03-11T11:30:54.638Z,44.44
2023-03-11T11:33:24.851Z,45.26
2023-03-11T11:35:53.354Z,45.73
2023-03-11T11:38:22.516Z,45.53
2023-03-11T11:40:49.066Z,44.87
2023-03-11T11:43:19.651Z,45.04
2023-03-11T11:45:49.252Z,44.24
2023-03-11T11:48:22.490Z,43.53
2023-03-11T11:50:53.707Z,44.10
2023-03-11T11:53:28.408Z,42.49
2023-03-11T11:55:55.233Z,44.35
2023-03-11T11:58:23.190Z,42.60
2023-03-11T12:01:02.791Z,42.75
2023-03-11T12:03:57.725Z,44.21
2023-03-11T12:06:31.335Z,43.66
2023-03-11T12:09:09.034Z,42.54
2023-03-11T12:11:42.108Z,41.34
2023-03-11T12:14:16.948Z,41.21
2023-03-11T12:16:51.287Z,40.57
2023-03-11T12:19:24.676Z,44.11
2023-03-11T12:22:08.397Z,42.67
2023-03-11T12:24:57.157Z,42.10
2023-03-11T12:27:27.915Z,43.79
2023-03-11T12:29:59.664Z,44.20
2023-03-11T12:32:34.462Z,45.02
2023-03-11T12:35:02.917Z,45.19
2023-03-11T12:37:29.546Z,43.97
2023-03-11T12:39:56.376Z,41.97
2023-03-11T12:42:24.060Z,43.52
2023-03-11T12:44:51.519Z,44.56
2023-03-11T12:47:23.957Z,45.39
2023-03-11T12:49:52.110Z,45.08
2023-03-11T12:52:25.532Z,44.18
2023-03-11T12:55:34.746Z,42.92
2023-03-11T12:58:28.564Z,42.33
2023-03-11T13:01:11.308Z,42.57
2023-03-11T13:03:57.751Z,44.21
2023-03-11T13:06:42.087Z,43.77
2023-03-11T13:09:15.063Z,44.20
2023-03-11T13:11:44.794Z,41.44
2023-03-11T13:14:26.265Z,41.22
2023-03-11T13:16:53.505Z,42.95
2023-03-11T13:19:48.741Z,43.50
2023-03-11T13:23:03.860Z,43.32
2023-03-11T13:25:35.110Z,43.98
2023-03-11T13:28:24.316Z,43.30
2023-03-11T13:30:56.947Z,42.68
2023-03-11T13:33:40.566Z,43.44
2023-03-11T13:36:21.181Z,42.77
2023-03-11T13:39:08.462Z,43.03
2023-03-11T13:41:36.780Z,42.64
2023-03-11T13:44:13.580Z,42.95
2023-03-11T13:46:42.744Z,42.84
2023-03-11T13:49:22.005Z,42.39
2023-03-11T13:51:51.888Z,38.16
2023-03-11T13:54:32.239Z,41.04
2023-03-11T13:57:01.497Z,40.48
2023-03-11T13:59:29.470Z,38.72
2023-03-11T14:01:57.795Z,38.16
2023-03-11T14:04:28.032Z,38.27
2023-03-11T14:06:56.140Z,39.00
2023-03-11T14:09:25.281Z,37.77
2023-03-11T14:11:53.103Z,39.27
2023-03-11T14:14:33.663Z,38.92
2023-03-11T14:17:01.417Z,39.37
2023-03-11T14:19:27.956Z,41.59
2023-03-11T14:21:55.976Z,40.91
2023-03-11T14:24:24.980Z,39.60
2023-03-11T14:26:52.992Z,39.23
2023-03-11T14:29:24.948Z,37.84
2023-03-11T14:31:51.690Z,39.08
2023-03-11T14:34:20.013Z,37.00
2023-03-11T14:36:48.821Z,37.74
2023-03-11T14:39:26.675Z,38.58
2023-03-11T14:41:57.074Z,38.21
2023-03-11T14:44:26.048Z,37.43
2023-03-11T14:46:59.305Z,37.96
2023-03-11T14:49:26.508Z,35.97
2023-03-11T14:51:59.385Z,39.09
2023-03-11T14:54:30.916Z,36.72
2023-03-11T14:57:04.177Z,38.07
2023-03-11T14:59:33.716Z,39.03
2023-03-11T15:02:26.484Z,37.97
2023-03-11T15:04:55.160Z,37.51
2023-03-11T15:07:22.989Z,38.21
2023-03-11T15:09:51.153Z,38.57
2023-03-11T15:12:32.324Z,36.88
2023-03-11T15:14:59.060Z,39.31
2023-03-11T15:17:42.803Z,38.71
2023-03-11T15:20:24.090Z,39.21
2023-03-11T15:22:57.296Z,38.18
2023-03-11T15:25:26.156Z,37.62
2023-03-11T15:27:52.958Z,37.50
2023-03-11T15:30:21.770Z,38.19
2023-03-11T15:32:49.178Z,38.63
2023-03-11T15:35:19.558Z,38.20
2023-03-11T15:37:47.988Z,38.22
2023-03-11T15:40:22.519Z,38.49
2023-03-11T15:43:19.106Z,37.52
2023-03-11T15:45:46.217Z,36.92
2023-03-11T15:48:14.180Z,37.18
2023-03-11T15:50:53.215Z,37.75
2023-03-11T15:53:21.372Z,36.80
2023-03-11T15:55:48.324Z,37.78
2023-03-11T15:58:18.453Z,39.45
2023-03-11T16:00:48.124Z,37.51
2023-03-11T16:03:14.906Z,37.82
2023-03-11T16:05:41.644Z,37.62
2023-03-11T16:08:08.221Z,36.40
2023-03-11T16:10:35.019Z,37.28
2023-03-11T16:13:01.612Z,38.29
2023-03-11T16:15:31.142Z,40.29
2023-03-11T16:18:01.242Z,41.72
2023-03-11T16:20:31.181Z,41.65
2023-03-11T16:22:59.185Z,37.52
2023-03-11T16:25:28.841Z,37.74
2023-03-11T16:27:56.557Z,38.40
2023-03-11T16:30:24.586Z,38.98
2023-03-11T16:32:52.569Z,40.45
2023-03-11T16:35:19.452Z,39.89
2023-03-11T16:37:46.195Z,40.55
2023-03-11T16:40:15.494Z,39.92
2023-03-11T16:42:42.500Z,39.14
2023-03-11T16:45:09.679Z,37.72
2023-03-11T16:47:36.654Z,38.09
2023-03-11T16:50:06.086Z,40.44
2023-03-11T16:52:33.021Z,41.36
2023-03-11T16:54:59.601Z,41.91
2023-03-11T16:57:26.409Z,42.96
2023-03-11T16:59:52.958Z,43.58
2023-03-11T17:02:19.660Z,43.61
2023-03-11T17:04:46.241Z,45.24
2023-03-11T17:07:14.245Z,45.94
2023-03-11T17:09:41.096Z,47.55
2023-03-11T17:12:08.302Z,47.02
2023-03-11T17:14:36.019Z,47.80
2023-03-11T17:17:02.796Z,48.76
2023-03-11T17:19:31.069Z,49.63
2023-03-11T17:21:57.602Z,50.63
2023-03-11T17:24:25.587Z,50.42
2023-03-11T17:26:52.372Z,50.75
2023-03-11T17:29:18.955Z,51.39
2023-03-11T17:31:45.608Z,51.72
2023-03-11T17:34:12.149Z,51.71
2023-03-11T17:36:38.731Z,51.68
2023-03-11T17:39:05.267Z,52.21
2023-03-11T17:41:33.164Z,52.59
2023-03-11T17:43:59.671Z,53.81
2023-03-11T17:46:26.294Z,54.57
2023-03-11T17:48:53.162Z,54.46
2023-03-11T17:51:21.511Z,55.77
2023-03-11T17:53:49.017Z,57.38
2023-03-11T17:56:17.877Z,57.99
2023-03-11T17:58:46.297Z,59.16
2023-03-11T18:01:14.604Z,59.47
2023-03-11T18:03:41.218Z,59.87
2023-03-11T18:06:08.282Z,60.66
2023-03-11T18:08:35.829Z,61.82
2023-03-11T18:11:04.716Z,63.00
2023-03-11T18:13:32.401Z,63.01
2023-03-11T18:16:02.127Z,63.04
2023-03-11T18:18:29.757Z,63.79
2023-03-11T18:21:00.967Z,63.61
2023-03-11T18:23:27.939Z,63.74
2023-03-11T18:25:54.444Z,64.79
2023-03-11T18:28:21.112Z,64.94
2023-03-11T18:30:47.681Z,65.25
2023-03-11T18:33:39.043Z,65.86
2023-03-11T18:36:14.124Z,66.43
2023-03-11T18:38:41.177Z,66.87
2023-03-11T18:41:07.823Z,67.02
2023-03-11T18:43:34.766Z,67.30
2023-03-11T18:46:01.794Z,67.05
2023-03-11T18:48:28.474Z,67.63
2023-03-11T18:50:56.389Z,68.34
2023-03-11T18:53:23.412Z,68.64
2023-03-11T18:55:49.979Z,69.35
2023-03-11T18:58:16.691Z,70.17
2023-03-11T19:00:43.221Z,70.99
2023-03-11T19:03:10.284Z,71.01
2023-03-11T19:05:37.203Z,71.39
2023-03-11T19:08:05.532Z,71.52
2023-03-11T19:10:32.116Z,71.72
2023-03-11T19:12:58.752Z,72.52
2023-03-11T19:15:25.261Z,73.07
2023-03-11T19:18:04.366Z,73.34
2023-03-11T19:20:33.361Z,73.24
2023-03-11T19:23:00.021Z,72.92
2023-03-11T19:25:28.240Z,73.20
2023-03-11T19:27:55.332Z,73.48
2023-03-11T19:30:22.161Z,74.40
2023-03-11T19:32:48.948Z,74.36
2023-03-11T19:35:15.620Z,75.48
2023-03-11T19:37:42.270Z,75.23
2023-03-11T19:40:11.548Z,75.38
2023-03-11T19:42:39.662Z,76.37
2023-03-11T19:45:07.840Z,76.25
2023-03-11T19:47:34.347Z,76.20
2023-03-11T19:50:00.984Z,76.72
2023-03-11T19:52:28.331Z,77.20
2023-03-11T19:54:55.022Z,77.18
2023-03-11T19:57:21.587Z,77.42
2023-03-11T19:59:49.617Z,77.34
2023-03-11T20:02:16.268Z,77.13
2023-03-11T20:04:43.423Z,77.27
2023-03-11T20:07:10.141Z,77.82
2023-03-11T20:09:36.744Z,77.83
2023-03-11T20:12:03.671Z,78.30
2023-03-11T20:14:30.256Z,78.30
2023-03-11T20:16:58.241Z,79.08
2023-03-11T20:19:24.928Z,78.65
2023-03-11T20:21:51.619Z,79.46
2023-03-11T20:24:18.456Z,79.80
2023-03-11T20:26:44.977Z,79.81
2023-03-11T20:29:11.624Z,80.51
2023-03-11T20:31:38.565Z,80.29
2023-03-11T20:34:06.677Z,80.29
2023-03-11T20:36:34.160Z,81.06
2023-03-11T20:39:01.146Z,81.37
2023-03-11T20:41:28.458Z,81.16
2023-03-11T20:43:56.748Z,81.76
2023-03-11T20:46:23.834Z,81.86
2023-03-11T20:48:50.655Z,82.27
2023-03-11T20:51:19.578Z,82.17
2023-03-11T20:53:46.497Z,82.39
2023-03-11T20:56:15.062Z,82.60
2023-03-11T20:58:41.937Z,82.81
2023-03-11T21:01:12.684Z,82.72
2023-03-11T21:03:39.493Z,83.09
2023-03-11T21:06:13.262Z,82.34
2023-03-11T21:08:41.244Z,82.30
2023-03-11T21:11:07.908Z,83.25
2023-03-11T21:13:34.654Z,82.75
2023-03-11T21:16:02.042Z,83.85
2023-03-11T21:18:28.781Z,84.00
2023-03-11T21:20:55.478Z,83.66
2023-03-11T21:23:22.502Z,84.66
2023-03-11T21:25:57.596Z,84.88
2023-03-11T21:28:24.443Z,84.46
2023-03-11T21:30:57.277Z,83.89
2023-03-11T21:33:24.241Z,84.60
2023-03-11T21:35:52.949Z,84.38
2023-03-11T21:38:19.733Z,84.42
2023-03-11T21:40:46.600Z,84.33
2023-03-11T21:43:14.852Z,84.51
2023-03-11T21:45:42.193Z,84.82
2023-03-11T21:48:09.604Z,84.90
2023-03-11T21:50:37.774Z,84.14
2023-03-11T21:53:04.501Z,84.70
2023-03-11T21:55:34.572Z,84.89
2023-03-11T21:58:01.375Z,85.08
2023-03-11T22:00:29.366Z,85.22
2023-03-11T22:02:56.767Z,85.11
2023-03-11T22:05:23.459Z,85.53
2023-03-11T22:07:50.255Z,85.87
2023-03-11T22:10:17.378Z,86.03
2023-03-11T22:12:44.174Z,86.02
2023-03-11T22:15:11.526Z,86.24
2023-03-11T22:17:39.699Z,86.13
2023-03-11T22:20:07.458Z,86.66
2023-03-11T22:22:34.572Z,86.94
2023-03-11T22:25:01.232Z,86.72
2023-03-11T22:27:27.871Z,86.39
2023-03-11T22:29:54.392Z,87.17
2023-03-11T22:32:21.031Z,86.72
2023-03-11T22:34:49.176Z,87.26
2023-03-11T22:37:15.829Z,87.40
2023-03-11T22:39:42.379Z,87.04
2023-03-11T22:42:09.359Z,87.07
2023-03-11T22:44:35.917Z,87.32
2023-03-11T22:47:02.690Z,87.76
2023-03-11T22:49:29.445Z,87.43
2023-03-11T22:51:57.469Z,87.58
2023-03-11T22:54:24.627Z,87.76
2023-03-11T22:56:51.313Z,87.43
2023-03-11T22:59:18.150Z,87.88
2023-03-11T23:01:44.773Z,87.28
2023-03-11T23:04:11.477Z,87.14
2023-03-11T23:06:38.263Z,87.52
2023-03-11T23:09:06.253Z,87.47
2023-03-11T23:11:32.926Z,87.82
2023-03-11T23:13:59.519Z,87.19
2023-03-11T23:16:26.353Z,87.58
2023-03-11T23:18:54.479Z,87.57
2023-03-11T23:21:23.086Z,87.60
2023-03-11T23:23:50.290Z,87.61
2023-03-11T23:26:19.525Z,87.43
2023-03-11T23:28:53.084Z,87.86
2023-03-11T23:31:22.015Z,88.02
2023-03-11T23:33:49.009Z,87.29
2023-03-11T23:36:17.942Z,87.74
2023-03-11T23:38:45.621Z,88.02
2023-03-11T23:41:14.860Z,88.20
2023-03-11T23:43:43.760Z,87.52
2023-03-11T23:46:10.780Z,87.69
2023-03-11T23:48:38.456Z,87.81
2023-03-11T23:51:05.499Z,87.58
2023-03-11T23:53:32.617Z,87.72
2023-03-11T23:55:59.557Z,87.28
2023-03-11T23:58:27.465Z,87.67
